sensor_id;sensor_type;location;lat;lon;timestamp;pressure;altitude;pressure_sealevel;temperature;humidity
62864;BME280;48954;59.950;11.014;2023-04-15T00:02:14;100279.47;;;-0.10;86.23
62864;BME280;48954;59.950;11.014;2023-04-15T00:04:41;100279.38;;;-0.11;86.22
62864;BME280;48954;59.950;11.014;2023-04-15T00:07:07;100282.29;;;-0.12;86.63
62864;BME280;48954;59.950;11.014;2023-04-15T00:09:32;100281.15;;;-0.11;86.58
62864;BME280;48954;59.950;11.014;2023-04-15T00:11:58;100285.75;;;-0.11;86.40
62864;BME280;48954;59.950;11.014;2023-04-15T00:14:25;100282.61;;;-0.11;86.53
62864;BME280;48954;59.950;11.014;2023-04-15T00:16:53;100281.69;;;-0.10;86.51
62864;BME280;48954;59.950;11.014;2023-04-15T00:19:59;100281.79;;;-0.09;86.41
62864;BME280;48954;59.950;11.014;2023-04-15T00:22:26;100278.45;;;-0.09;86.45
62864;BME280;48954;59.950;11.014;2023-04-15T00:24:55;100279.09;;;-0.09;86.29
62864;BME280;48954;59.950;11.014;2023-04-15T00:27:21;100276.77;;;-0.08;86.35
62864;BME280;48954;59.950;11.014;2023-04-15T00:29:48;100275.95;;;-0.08;86.52
62864;BME280;48954;59.950;11.014;2023-04-15T00:32:15;100276.66;;;-0.07;86.46
62864;BME280;48954;59.950;11.014;2023-04-15T00:34:41;100276.92;;;-0.07;86.42
62864;BME280;48954;59.950;11.014;2023-04-15T00:37:08;100274.38;;;-0.07;86.56
62864;BME280;48954;59.950;11.014;2023-04-15T00:39:35;100273.30;;;-0.07;86.34
62864;BME280;48954;59.950;11.014;2023-04-15T00:42:03;100274.98;;;-0.06;86.43
62864;BME280;48954;59.950;11.014;2023-04-15T00:44:29;100275.84;;;-0.05;86.56
62864;BME280;48954;59.950;11.014;2023-04-15T00:46:55;100274.55;;;-0.04;86.47
62864;BME280;48954;59.950;11.014;2023-04-15T00:49:22;100276.21;;;-0.03;86.43
62864;BME280;48954;59.950;11.014;2023-04-15T00:51:48;100279.36;;;-0.03;86.60
62864;BME280;48954;59.950;11.014;2023-04-15T00:54:14;100278.77;;;-0.01;86.61
62864;BME280;48954;59.950;11.014;2023-04-15T00:56:40;100280.65;;;-0.01;86.50
62864;BME280;48954;59.950;11.014;2023-04-15T00:59:07;100276.42;;;-0.00;86.82
62864;BME280;48954;59.950;11.014;2023-04-15T01:01:34;100274.71;;;0.01;86.65
62864;BME280;48954;59.950;11.014;2023-04-15T01:04:01;100268.39;;;0.01;86.56
62864;BME280;48954;59.950;11.014;2023-04-15T01:06:28;100274.45;;;0.02;86.49
62864;BME280;48954;59.950;11.014;2023-04-15T01:08:56;100270.17;;;0.03;86.72
62864;BME280;48954;59.950;11.014;2023-04-15T01:11:23;100268.11;;;0.03;86.62
62864;BME280;48954;59.950;11.014;2023-04-15T01:13:50;100264.77;;;0.03;86.66
62864;BME280;48954;59.950;11.014;2023-04-15T01:16:17;100263.20;;;0.02;86.68
62864;BME280;48954;59.950;11.014;2023-04-15T01:18:44;100263.79;;;0.04;86.61
62864;BME280;48954;59.950;11.014;2023-04-15T01:21:15;100264.92;;;0.04;86.59
62864;BME280;48954;59.950;11.014;2023-04-15T01:23:43;100267.20;;;0.04;86.72
62864;BME280;48954;59.950;11.014;2023-04-15T01:26:12;100261.62;;;0.05;86.75
62864;BME280;48954;59.950;11.014;2023-04-15T01:28:40;100262.21;;;0.06;86.62
62864;BME280;48954;59.950;11.014;2023-04-15T01:31:11;100260.38;;;0.08;86.70
62864;BME280;48954;59.950;11.014;2023-04-15T01:33:40;100260.38;;;0.09;86.59
62864;BME280;48954;59.950;11.014;2023-04-15T01:36:09;100262.59;;;0.11;86.75
62864;BME280;48954;59.950;11.014;2023-04-15T01:38:37;100256.79;;;0.11;86.48
62864;BME280;48954;59.950;11.014;2023-04-15T01:41:05;100259.98;;;0.12;86.76
62864;BME280;48954;59.950;11.014;2023-04-15T01:43:31;100259.33;;;0.13;86.87
62864;BME280;48954;59.950;11.014;2023-04-15T01:46:05;100263.31;;;0.14;86.56
62864;BME280;48954;59.950;11.014;2023-04-15T01:48:31;100264.71;;;0.14;86.87
62864;BME280;48954;59.950;11.014;2023-04-15T01:50:58;100269.20;;;0.14;86.73
62864;BME280;48954;59.950;11.014;2023-04-15T01:53:27;100266.54;;;0.14;86.94
62864;BME280;48954;59.950;11.014;2023-04-15T01:55:59;100271.36;;;0.16;86.95
62864;BME280;48954;59.950;11.014;2023-04-15T01:58:26;100271.25;;;0.18;86.97
62864;BME280;48954;59.950;11.014;2023-04-15T02:00:52;100271.84;;;0.18;87.00
62864;BME280;48954;59.950;11.014;2023-04-15T02:03:19;100270.38;;;0.19;86.96
62864;BME280;48954;59.950;11.014;2023-04-15T02:05:45;100276.05;;;0.21;86.95
62864;BME280;48954;59.950;11.014;2023-04-15T02:08:14;100275.73;;;0.22;86.86
62864;BME280;48954;59.950;11.014;2023-04-15T02:10:40;100276.05;;;0.22;86.96
62864;BME280;48954;59.950;11.014;2023-04-15T02:13:05;100278.00;;;0.23;86.88
62864;BME280;48954;59.950;11.014;2023-04-15T02:15:32;100279.77;;;0.24;86.91
62864;BME280;48954;59.950;11.014;2023-04-15T02:17:59;100281.23;;;0.25;86.94
62864;BME280;48954;59.950;11.014;2023-04-15T02:20:25;100283.42;;;0.27;87.02
62864;BME280;48954;59.950;11.014;2023-04-15T02:22:51;100282.71;;;0.27;86.88
62864;BME280;48954;59.950;11.014;2023-04-15T02:25:18;100288.55;;;0.29;86.87
62864;BME280;48954;59.950;11.014;2023-04-15T02:27:52;100283.84;;;0.30;86.96
62864;BME280;48954;59.950;11.014;2023-04-15T02:30:18;100290.60;;;0.32;86.90
62864;BME280;48954;59.950;11.014;2023-04-15T02:32:44;100287.35;;;0.32;86.74
62864;BME280;48954;59.950;11.014;2023-04-15T02:35:10;100289.04;;;0.33;86.84
62864;BME280;48954;59.950;11.014;2023-04-15T02:37:36;100287.41;;;0.33;86.79
62864;BME280;48954;59.950;11.014;2023-04-15T02:40:02;100287.57;;;0.33;86.88
62864;BME280;48954;59.950;11.014;2023-04-15T02:42:28;100288.42;;;0.34;86.88
62864;BME280;48954;59.950;11.014;2023-04-15T02:44:55;100288.77;;;0.34;86.78
62864;BME280;48954;59.950;11.014;2023-04-15T02:47:20;100288.00;;;0.34;86.89
62864;BME280;48954;59.950;11.014;2023-04-15T02:49:46;100290.77;;;0.35;86.87
62864;BME280;48954;59.950;11.014;2023-04-15T02:52:12;100291.52;;;0.36;86.92
62864;BME280;48954;59.950;11.014;2023-04-15T02:54:38;100289.13;;;0.36;86.79
62864;BME280;48954;59.950;11.014;2023-04-15T02:57:04;100291.67;;;0.36;86.82
62864;BME280;48954;59.950;11.014;2023-04-15T02:59:30;100293.13;;;0.37;86.86
62864;BME280;48954;59.950;11.014;2023-04-15T03:01:56;100295.40;;;0.38;86.88
62864;BME280;48954;59.950;11.014;2023-04-15T03:04:22;100296.16;;;0.37;86.93
62864;BME280;48954;59.950;11.014;2023-04-15T03:06:47;100293.77;;;0.38;86.85
62864;BME280;48954;59.950;11.014;2023-04-15T03:09:13;100299.84;;;0.37;86.86
62864;BME280;48954;59.950;11.014;2023-04-15T03:11:39;100298.38;;;0.37;86.73
62864;BME280;48954;59.950;11.014;2023-04-15T03:14:05;100296.60;;;0.36;86.76
62864;BME280;48954;59.950;11.014;2023-04-15T03:16:31;100296.98;;;0.37;86.79
62864;BME280;48954;59.950;11.014;2023-04-15T03:18:56;100300.60;;;0.37;87.09
62864;BME280;48954;59.950;11.014;2023-04-15T03:21:22;100298.33;;;0.37;86.89
62864;BME280;48954;59.950;11.014;2023-04-15T03:23:48;100302.70;;;0.38;86.87
62864;BME280;48954;59.950;11.014;2023-04-15T03:26:25;100305.36;;;0.38;87.04
62864;BME280;48954;59.950;11.014;2023-04-15T03:28:52;100305.55;;;0.39;87.02
62864;BME280;48954;59.950;11.014;2023-04-15T03:31:18;100312.08;;;0.41;86.96
62864;BME280;48954;59.950;11.014;2023-04-15T03:33:44;100312.04;;;0.42;86.98
62864;BME280;48954;59.950;11.014;2023-04-15T03:36:10;100309.64;;;0.42;87.06
62864;BME280;48954;59.950;11.014;2023-04-15T03:38:36;100309.80;;;0.44;86.99
62864;BME280;48954;59.950;11.014;2023-04-15T03:41:01;100310.08;;;0.44;87.00
62864;BME280;48954;59.950;11.014;2023-04-15T03:43:27;100308.73;;;0.44;86.90
62864;BME280;48954;59.950;11.014;2023-04-15T03:45:53;100309.81;;;0.43;86.80
62864;BME280;48954;59.950;11.014;2023-04-15T03:48:19;100312.36;;;0.43;86.87
62864;BME280;48954;59.950;11.014;2023-04-15T03:50:45;100314.58;;;0.42;86.92
62864;BME280;48954;59.950;11.014;2023-04-15T03:53:10;100311.11;;;0.42;86.91
62864;BME280;48954;59.950;11.014;2023-04-15T03:55:36;100313.11;;;0.42;87.00
62864;BME280;48954;59.950;11.014;2023-04-15T03:58:02;100316.63;;;0.43;87.12
62864;BME280;48954;59.950;11.014;2023-04-15T04:00:28;100315.88;;;0.42;86.95
62864;BME280;48954;59.950;11.014;2023-04-15T04:02:54;100316.03;;;0.43;86.91
62864;BME280;48954;59.950;11.014;2023-04-15T04:05:19;100312.90;;;0.42;86.98
62864;BME280;48954;59.950;11.014;2023-04-15T04:07:45;100320.48;;;0.42;87.03
62864;BME280;48954;59.950;11.014;2023-04-15T04:10:11;100319.98;;;0.42;87.07
62864;BME280;48954;59.950;11.014;2023-04-15T04:12:37;100326.75;;;0.44;86.98
62864;BME280;48954;59.950;11.014;2023-04-15T04:15:03;100329.07;;;0.45;87.08
62864;BME280;48954;59.950;11.014;2023-04-15T04:17:29;100329.56;;;0.45;87.11
62864;BME280;48954;59.950;11.014;2023-04-15T04:19:55;100335.88;;;0.46;86.92
62864;BME280;48954;59.950;11.014;2023-04-15T04:22:22;100332.42;;;0.47;87.08
62864;BME280;48954;59.950;11.014;2023-04-15T04:24:48;100338.38;;;0.47;86.95
62864;BME280;48954;59.950;11.014;2023-04-15T04:27:13;100333.39;;;0.48;87.04
62864;BME280;48954;59.950;11.014;2023-04-15T04:29:39;100336.58;;;0.49;87.12
62864;BME280;48954;59.950;11.014;2023-04-15T04:32:05;100340.85;;;0.50;87.03
62864;BME280;48954;59.950;11.014;2023-04-15T04:34:31;100344.27;;;0.51;87.16
62864;BME280;48954;59.950;11.014;2023-04-15T04:36:57;100346.63;;;0.52;87.33
62864;BME280;48954;59.950;11.014;2023-04-15T04:39:23;100347.16;;;0.53;87.14
62864;BME280;48954;59.950;11.014;2023-04-15T04:41:49;100350.17;;;0.54;87.17
62864;BME280;48954;59.950;11.014;2023-04-15T04:44:14;100349.91;;;0.56;87.08
62864;BME280;48954;59.950;11.014;2023-04-15T04:46:40;100350.34;;;0.56;87.10
62864;BME280;48954;59.950;11.014;2023-04-15T04:49:06;100354.02;;;0.58;87.25
62864;BME280;48954;59.950;11.014;2023-04-15T04:51:32;100360.56;;;0.60;87.31
62864;BME280;48954;59.950;11.014;2023-04-15T04:53:58;100359.25;;;0.62;87.16
62864;BME280;48954;59.950;11.014;2023-04-15T04:56:24;100359.80;;;0.63;87.10
62864;BME280;48954;59.950;11.014;2023-04-15T04:58:50;100364.36;;;0.65;87.24
62864;BME280;48954;59.950;11.014;2023-04-15T05:01:16;100367.39;;;0.67;87.05
62864;BME280;48954;59.950;11.014;2023-04-15T05:03:45;100365.33;;;0.68;87.02
62864;BME280;48954;59.950;11.014;2023-04-15T05:06:11;100371.21;;;0.70;87.21
62864;BME280;48954;59.950;11.014;2023-04-15T05:08:36;100368.12;;;0.73;87.25
62864;BME280;48954;59.950;11.014;2023-04-15T05:11:02;100370.98;;;0.74;87.14
62864;BME280;48954;59.950;11.014;2023-04-15T05:13:28;100369.90;;;0.76;87.10
62864;BME280;48954;59.950;11.014;2023-04-15T05:15:55;100375.29;;;0.78;87.05
62864;BME280;48954;59.950;11.014;2023-04-15T05:18:20;100375.27;;;0.79;86.93
62864;BME280;48954;59.950;11.014;2023-04-15T05:20:46;100371.91;;;0.81;86.99
62864;BME280;48954;59.950;11.014;2023-04-15T05:23:12;100376.94;;;0.84;87.00
62864;BME280;48954;59.950;11.014;2023-04-15T05:25:38;100377.48;;;0.86;86.86
62864;BME280;48954;59.950;11.014;2023-04-15T05:28:04;100379.59;;;0.87;86.99
62864;BME280;48954;59.950;11.014;2023-04-15T05:30:30;100375.84;;;0.88;87.07
62864;BME280;48954;59.950;11.014;2023-04-15T05:32:55;100382.45;;;0.89;86.81
62864;BME280;48954;59.950;11.014;2023-04-15T05:35:21;100381.64;;;0.90;87.05
62864;BME280;48954;59.950;11.014;2023-04-15T05:37:47;100383.26;;;0.90;87.01
62864;BME280;48954;59.950;11.014;2023-04-15T05:40:13;100385.34;;;0.91;86.81
62864;BME280;48954;59.950;11.014;2023-04-15T05:42:39;100388.41;;;0.92;87.01
62864;BME280;48954;59.950;11.014;2023-04-15T05:45:05;100392.25;;;0.92;86.83
62864;BME280;48954;59.950;11.014;2023-04-15T05:47:31;100392.15;;;0.92;86.75
62864;BME280;48954;59.950;11.014;2023-04-15T05:49:57;100395.23;;;0.93;86.89
62864;BME280;48954;59.950;11.014;2023-04-15T05:52:22;100396.00;;;0.93;86.91
62864;BME280;48954;59.950;11.014;2023-04-15T05:54:48;100394.22;;;0.93;86.82
62864;BME280;48954;59.950;11.014;2023-04-15T05:57:14;100395.51;;;0.94;86.84
62864;BME280;48954;59.950;11.014;2023-04-15T05:59:40;100398.59;;;0.94;86.90
62864;BME280;48954;59.950;11.014;2023-04-15T06:02:06;100400.21;;;0.96;86.99
62864;BME280;48954;59.950;11.014;2023-04-15T06:04:31;100398.42;;;0.97;87.12
62864;BME280;48954;59.950;11.014;2023-04-15T06:06:57;100402.20;;;1.00;86.91
62864;BME280;48954;59.950;11.014;2023-04-15T06:09:23;100404.04;;;1.02;86.87
62864;BME280;48954;59.950;11.014;2023-04-15T06:11:50;100409.42;;;1.04;86.87
62864;BME280;48954;59.950;11.014;2023-04-15T06:14:16;100411.69;;;1.07;87.16
62864;BME280;48954;59.950;11.014;2023-04-15T06:16:42;100413.35;;;1.09;86.99
62864;BME280;48954;59.950;11.014;2023-04-15T06:19:07;100418.38;;;1.12;86.93
62864;BME280;48954;59.950;11.014;2023-04-15T06:21:33;100419.89;;;1.14;86.90
62864;BME280;48954;59.950;11.014;2023-04-15T06:23:59;100422.66;;;1.13;86.90
62864;BME280;48954;59.950;11.014;2023-04-15T06:26:25;100428.13;;;1.14;86.88
62864;BME280;48954;59.950;11.014;2023-04-15T06:28:51;100426.17;;;1.15;86.84
62864;BME280;48954;59.950;11.014;2023-04-15T06:31:17;100430.83;;;1.16;86.84
62864;BME280;48954;59.950;11.014;2023-04-15T06:33:42;100434.67;;;1.17;86.86
62864;BME280;48954;59.950;11.014;2023-04-15T06:36:08;100435.02;;;1.17;86.79
62864;BME280;48954;59.950;11.014;2023-04-15T06:38:34;100441.52;;;1.18;87.20
62864;BME280;48954;59.950;11.014;2023-04-15T06:41:00;100435.06;;;1.19;86.96
62864;BME280;48954;59.950;11.014;2023-04-15T06:43:26;100436.09;;;1.18;86.89
62864;BME280;48954;59.950;11.014;2023-04-15T06:45:51;100442.86;;;1.20;86.85
62864;BME280;48954;59.950;11.014;2023-04-15T06:48:17;100447.42;;;1.19;86.68
62864;BME280;48954;59.950;11.014;2023-04-15T06:50:43;100453.34;;;1.19;86.80
62864;BME280;48954;59.950;11.014;2023-04-15T06:53:09;100450.63;;;1.18;86.81
62864;BME280;48954;59.950;11.014;2023-04-15T06:55:38;100439.61;;;1.15;86.55
62864;BME280;48954;59.950;11.014;2023-04-15T06:58:04;100438.91;;;1.14;86.57
62864;BME280;48954;59.950;11.014;2023-04-15T07:00:33;100437.51;;;1.14;86.71
62864;BME280;48954;59.950;11.014;2023-04-15T07:03:01;100441.89;;;1.15;86.94
62864;BME280;48954;59.950;11.014;2023-04-15T07:05:32;100453.42;;;1.16;86.97
62864;BME280;48954;59.950;11.014;2023-04-15T07:07:59;100449.27;;;1.17;87.01
62864;BME280;48954;59.950;11.014;2023-04-15T07:10:42;100455.98;;;1.21;87.09
62864;BME280;48954;59.950;11.014;2023-04-15T07:13:08;100462.24;;;1.25;87.01
62864;BME280;48954;59.950;11.014;2023-04-15T07:15:35;100462.38;;;1.30;86.97
62864;BME280;48954;59.950;11.014;2023-04-15T07:18:02;100467.55;;;1.33;87.04
62864;BME280;48954;59.950;11.014;2023-04-15T07:20:28;100469.48;;;1.37;87.13
62864;BME280;48954;59.950;11.014;2023-04-15T07:22:54;100470.86;;;1.41;87.07
62864;BME280;48954;59.950;11.014;2023-04-15T07:25:20;100475.22;;;1.47;87.15
62864;BME280;48954;59.950;11.014;2023-04-15T07:27:46;100477.53;;;1.50;87.22
62864;BME280;48954;59.950;11.014;2023-04-15T07:30:14;100478.60;;;1.54;86.97
62864;BME280;48954;59.950;11.014;2023-04-15T07:32:41;100479.05;;;1.58;87.08
62864;BME280;48954;59.950;11.014;2023-04-15T07:35:07;100479.14;;;1.61;86.96
62864;BME280;48954;59.950;11.014;2023-04-15T07:37:33;100477.44;;;1.65;86.88
62864;BME280;48954;59.950;11.014;2023-04-15T07:39:58;100481.09;;;1.68;86.94
62864;BME280;48954;59.950;11.014;2023-04-15T07:42:24;100480.83;;;1.73;86.92
62864;BME280;48954;59.950;11.014;2023-04-15T07:44:50;100482.33;;;1.77;86.83
62864;BME280;48954;59.950;11.014;2023-04-15T07:47:17;100485.45;;;1.81;86.88
62864;BME280;48954;59.950;11.014;2023-04-15T07:49:43;100490.41;;;1.82;86.61
62864;BME280;48954;59.950;11.014;2023-04-15T07:52:09;100495.92;;;1.85;86.76
62864;BME280;48954;59.950;11.014;2023-04-15T07:54:34;100501.13;;;1.86;86.78
62864;BME280;48954;59.950;11.014;2023-04-15T07:57:00;100500.91;;;1.87;86.78
62864;BME280;48954;59.950;11.014;2023-04-15T07:59:26;100503.83;;;1.88;86.67
62864;BME280;48954;59.950;11.014;2023-04-15T08:01:52;100507.09;;;1.88;86.63
62864;BME280;48954;59.950;11.014;2023-04-15T08:04:18;100506.87;;;1.88;86.80
62864;BME280;48954;59.950;11.014;2023-04-15T08:06:43;100513.11;;;1.89;86.80
62864;BME280;48954;59.950;11.014;2023-04-15T08:09:10;100514.58;;;1.88;86.79
62864;BME280;48954;59.950;11.014;2023-04-15T08:11:35;100510.95;;;1.87;86.67
62864;BME280;48954;59.950;11.014;2023-04-15T08:14:01;100509.86;;;1.87;86.79
62864;BME280;48954;59.950;11.014;2023-04-15T08:16:27;100511.22;;;1.86;86.58
62864;BME280;48954;59.950;11.014;2023-04-15T08:18:54;100510.08;;;1.86;86.64
62864;BME280;48954;59.950;11.014;2023-04-15T08:21:21;100506.27;;;1.86;86.53
62864;BME280;48954;59.950;11.014;2023-04-15T08:23:49;100509.73;;;1.88;86.74
62864;BME280;48954;59.950;11.014;2023-04-15T08:26:16;100510.98;;;1.91;86.48
62864;BME280;48954;59.950;11.014;2023-04-15T08:28:43;100513.03;;;1.92;86.54
62864;BME280;48954;59.950;11.014;2023-04-15T08:31:10;100518.98;;;1.94;86.57
62864;BME280;48954;59.950;11.014;2023-04-15T08:33:36;100519.45;;;1.95;86.66
62864;BME280;48954;59.950;11.014;2023-04-15T08:36:02;100518.66;;;1.96;86.64
62864;BME280;48954;59.950;11.014;2023-04-15T08:38:27;100522.20;;;1.96;86.63
62864;BME280;48954;59.950;11.014;2023-04-15T08:40:54;100524.10;;;1.97;86.41
62864;BME280;48954;59.950;11.014;2023-04-15T08:43:27;100524.91;;;1.97;86.43
62864;BME280;48954;59.950;11.014;2023-04-15T08:45:53;100526.70;;;1.97;86.63
62864;BME280;48954;59.950;11.014;2023-04-15T08:48:20;100529.95;;;1.97;86.40
62864;BME280;48954;59.950;11.014;2023-04-15T08:50:46;100533.21;;;1.97;86.62
62864;BME280;48954;59.950;11.014;2023-04-15T08:53:13;100538.25;;;1.97;86.48
62864;BME280;48954;59.950;11.014;2023-04-15T08:55:50;100545.48;;;1.97;86.34
62864;BME280;48954;59.950;11.014;2023-04-15T08:58:18;100549.22;;;1.97;86.43
62864;BME280;48954;59.950;11.014;2023-04-15T09:00:47;100548.32;;;1.96;86.43
62864;BME280;48954;59.950;11.014;2023-04-15T09:03:13;100546.48;;;1.95;86.51
62864;BME280;48954;59.950;11.014;2023-04-15T09:05:44;100548.77;;;1.93;86.52
62864;BME280;48954;59.950;11.014;2023-04-15T09:08:15;100549.70;;;1.91;86.49
62864;BME280;48954;59.950;11.014;2023-04-15T09:10:41;100555.37;;;1.89;86.33
62864;BME280;48954;59.950;11.014;2023-04-15T09:13:07;100552.83;;;1.87;86.49
62864;BME280;48954;59.950;11.014;2023-04-15T09:18:32;100561.33;;;1.82;86.62
62864;BME280;48954;59.950;11.014;2023-04-15T09:23:34;100569.16;;;1.78;86.51
62864;BME280;48954;59.950;11.014;2023-04-15T09:26:01;100569.83;;;1.76;86.52
62864;BME280;48954;59.950;11.014;2023-04-15T09:28:28;100565.71;;;1.74;86.61
62864;BME280;48954;59.950;11.014;2023-04-15T09:30:58;100563.17;;;1.72;86.55
62864;BME280;48954;59.950;11.014;2023-04-15T09:33:25;100563.44;;;1.71;86.70
62864;BME280;48954;59.950;11.014;2023-04-15T09:35:59;100561.34;;;1.71;86.66
62864;BME280;48954;59.950;11.014;2023-04-15T09:38:26;100562.95;;;1.71;86.63
62864;BME280;48954;59.950;11.014;2023-04-15T09:40:52;100563.39;;;1.71;86.77
62864;BME280;48954;59.950;11.014;2023-04-15T09:43:18;100570.49;;;1.72;86.86
62864;BME280;48954;59.950;11.014;2023-04-15T09:45:51;100567.45;;;1.72;86.83
62864;BME280;48954;59.950;11.014;2023-04-15T09:48:24;100571.20;;;1.73;86.95
62864;BME280;48954;59.950;11.014;2023-04-15T09:50:50;100576.63;;;1.73;86.84
62864;BME280;48954;59.950;11.014;2023-04-15T09:53:18;100572.84;;;1.70;86.77
62864;BME280;48954;59.950;11.014;2023-04-15T09:55:52;100569.20;;;1.70;86.72
62864;BME280;48954;59.950;11.014;2023-04-15T09:58:25;100573.20;;;1.68;86.84
62864;BME280;48954;59.950;11.014;2023-04-15T10:00:54;100569.23;;;1.68;86.67
62864;BME280;48954;59.950;11.014;2023-04-15T10:03:23;100571.23;;;1.70;86.85
62864;BME280;48954;59.950;11.014;2023-04-15T10:05:51;100574.02;;;1.75;86.96
62864;BME280;48954;59.950;11.014;2023-04-15T10:08:20;100573.27;;;1.81;86.92
62864;BME280;48954;59.950;11.014;2023-04-15T10:10:47;100574.20;;;1.88;86.99
62864;BME280;48954;59.950;11.014;2023-04-15T10:13:19;100573.36;;;1.98;86.99
62864;BME280;48954;59.950;11.014;2023-04-15T10:15:59;100574.77;;;2.12;86.93
62864;BME280;48954;59.950;11.014;2023-04-15T10:18:27;100571.95;;;2.26;86.83
62864;BME280;48954;59.950;11.014;2023-04-15T10:20:57;100576.34;;;2.40;86.95
62864;BME280;48954;59.950;11.014;2023-04-15T10:23:25;100579.16;;;2.53;86.72
62864;BME280;48954;59.950;11.014;2023-04-15T10:25:52;100574.21;;;2.64;86.69
62864;BME280;48954;59.950;11.014;2023-04-15T10:28:19;100575.02;;;2.76;86.61
62864;BME280;48954;59.950;11.014;2023-04-15T10:30:45;100579.15;;;2.86;86.53
62864;BME280;48954;59.950;11.014;2023-04-15T10:33:13;100579.32;;;2.96;86.34
62864;BME280;48954;59.950;11.014;2023-04-15T10:35:40;100582.86;;;3.04;86.24
62864;BME280;48954;59.950;11.014;2023-04-15T10:44:01;100588.79;;;3.36;86.18
62864;BME280;48954;59.950;11.014;2023-04-15T10:46:41;100588.52;;;3.48;85.82
62864;BME280;48954;59.950;11.014;2023-04-15T10:49:12;100590.52;;;3.63;85.80
62864;BME280;48954;59.950;11.014;2023-04-15T10:51:39;100590.80;;;3.69;85.53
62864;BME280;48954;59.950;11.014;2023-04-15T10:54:30;100588.36;;;3.76;85.39
62864;BME280;48954;59.950;11.014;2023-04-15T10:59:25;100593.93;;;3.93;85.04
62864;BME280;48954;59.950;11.014;2023-04-15T11:01:56;100588.82;;;4.01;84.87
62864;BME280;48954;59.950;11.014;2023-04-15T11:04:56;100591.64;;;4.13;85.03
62864;BME280;48954;59.950;11.014;2023-04-15T11:07:46;100588.48;;;4.22;84.66
62864;BME280;48954;59.950;11.014;2023-04-15T11:12:39;100588.98;;;4.29;84.58
62864;BME280;48954;59.950;11.014;2023-04-15T11:17:51;100594.64;;;4.42;84.55
62864;BME280;48954;59.950;11.014;2023-04-15T11:20:17;100595.61;;;4.46;84.08
62864;BME280;48954;59.950;11.014;2023-04-15T11:22:50;100595.93;;;4.50;84.10
62864;BME280;48954;59.950;11.014;2023-04-15T11:25:24;100595.53;;;4.54;83.97
62864;BME280;48954;59.950;11.014;2023-04-15T11:27:51;100591.34;;;4.61;84.03
62864;BME280;48954;59.950;11.014;2023-04-15T11:30:19;100591.48;;;4.67;83.87
62864;BME280;48954;59.950;11.014;2023-04-15T11:32:45;100593.64;;;4.75;83.71
62864;BME280;48954;59.950;11.014;2023-04-15T11:35:11;100596.20;;;4.79;83.68
62864;BME280;48954;59.950;11.014;2023-04-15T11:37:36;100598.50;;;4.78;83.38
62864;BME280;48954;59.950;11.014;2023-04-15T11:40:02;100598.10;;;4.75;83.23
62864;BME280;48954;59.950;11.014;2023-04-15T11:42:29;100600.60;;;4.77;83.41
62864;BME280;48954;59.950;11.014;2023-04-15T11:45:12;100597.64;;;4.78;83.44
62864;BME280;48954;59.950;11.014;2023-04-15T11:47:49;100601.90;;;4.82;83.26
62864;BME280;48954;59.950;11.014;2023-04-15T11:50:21;100603.78;;;4.81;83.03
62864;BME280;48954;59.950;11.014;2023-04-15T11:53:01;100604.40;;;4.78;82.70
62864;BME280;48954;59.950;11.014;2023-04-15T11:55:29;100606.81;;;4.76;82.79
62864;BME280;48954;59.950;11.014;2023-04-15T11:58:15;100604.55;;;4.74;82.76
62864;BME280;48954;59.950;11.014;2023-04-15T12:00:46;100609.56;;;4.72;82.68
62864;BME280;48954;59.950;11.014;2023-04-15T12:03:25;100614.41;;;4.71;82.92
62864;BME280;48954;59.950;11.014;2023-04-15T12:14:26;100623.61;;;4.84;82.74
62864;BME280;48954;59.950;11.014;2023-04-15T12:16:55;100623.35;;;4.90;82.73
62864;BME280;48954;59.950;11.014;2023-04-15T12:19:24;100629.02;;;4.99;82.63
62864;BME280;48954;59.950;11.014;2023-04-15T12:22:07;100627.64;;;5.06;82.52
62864;BME280;48954;59.950;11.014;2023-04-15T12:24:36;100625.36;;;5.14;82.66
62864;BME280;48954;59.950;11.014;2023-04-15T12:27:03;100625.91;;;5.19;82.43
62864;BME280;48954;59.950;11.014;2023-04-15T12:29:31;100623.34;;;5.25;82.40
62864;BME280;48954;59.950;11.014;2023-04-15T12:32:07;100627.11;;;5.32;82.28
62864;BME280;48954;59.950;11.014;2023-04-15T12:34:37;100627.04;;;5.36;82.13
62864;BME280;48954;59.950;11.014;2023-04-15T12:37:05;100628.90;;;5.39;82.30
62864;BME280;48954;59.950;11.014;2023-04-15T12:39:34;100628.23;;;5.40;82.17
62864;BME280;48954;59.950;11.014;2023-04-15T12:42:03;100632.40;;;5.42;82.04
62864;BME280;48954;59.950;11.014;2023-04-15T12:44:30;100634.89;;;5.37;81.84
62864;BME280;48954;59.950;11.014;2023-04-15T12:46:56;100635.11;;;5.33;81.80
62864;BME280;48954;59.950;11.014;2023-04-15T12:49:23;100635.54;;;5.30;81.68
62864;BME280;48954;59.950;11.014;2023-04-15T12:51:54;100637.18;;;5.26;81.98
62864;BME280;48954;59.950;11.014;2023-04-15T12:54:24;100635.10;;;5.21;81.75
62864;BME280;48954;59.950;11.014;2023-04-15T12:56:51;100631.34;;;5.15;81.79
62864;BME280;48954;59.950;11.014;2023-04-15T12:59:17;100634.02;;;5.11;81.60
62864;BME280;48954;59.950;11.014;2023-04-15T13:01:47;100633.09;;;5.06;81.59
62864;BME280;48954;59.950;11.014;2023-04-15T13:04:14;100632.64;;;5.01;81.57
62864;BME280;48954;59.950;11.014;2023-04-15T13:06:43;100636.83;;;4.98;81.82
62864;BME280;48954;59.950;11.014;2023-04-15T13:09:09;100631.98;;;4.98;81.99
62864;BME280;48954;59.950;11.014;2023-04-15T13:11:35;100633.64;;;4.99;81.98
62864;BME280;48954;59.950;11.014;2023-04-15T13:14:06;100633.16;;;5.02;82.12
62864;BME280;48954;59.950;11.014;2023-04-15T13:16:35;100631.97;;;4.98;81.78
62864;BME280;48954;59.950;11.014;2023-04-15T13:19:02;100632.54;;;4.97;81.94
62864;BME280;48954;59.950;11.014;2023-04-15T13:21:30;100628.77;;;5.00;82.01